sensor_id;sensor_type;location;lat;lon;timestamp;temperature;humidity
21271;DHT22;10795;50.796;3.860;2023-09-12T00:01:30;19.70;99.90
21271;DHT22;10795;50.796;3.860;2023-09-12T00:03:58;19.60;99.90
21271;DHT22;10795;50.796;3.860;2023-09-12T00:06:24;19.60;99.90
21271;DHT22;10795;50.796;3.860;2023-09-12T00:08:50;19.70;99.90
21271;DHT22;10795;50.796;3.860;2023-09-12T00:11:16;19.80;99.90
21271;DHT22;10795;50.796;3.860;2023-09-12T00:13:42;20.10;99.90
21271;DHT22;10795;50.796;3.860;2023-09-12T00:16:08;20.50;99.90
21271;DHT22;10795;50.796;3.860;2023-09-12T00:18:39;20.40;99.90
21271;DHT22;10795;50.796;3.860;2023-09-12T00:21:04;19.80;99.90
21271;DHT22;10795;50.796;3.860;2023-09-12T00:23:30;19.30;99.90
21271;DHT22;10795;50.796;3.860;2023-09-12T00:25:56;19.10;99.90
21271;DHT22;10795;50.796;3.860;2023-09-12T00:28:22;19.20;99.90
21271;DHT22;10795;50.796;3.860;2023-09-12T00:30:48;19.20;99.90
21271;DHT22;10795;50.796;3.860;2023-09-12T00:33:13;19.40;99.90
21271;DHT22;10795;50.796;3.860;2023-09-12T00:35:39;19.60;99.90
21271;DHT22;10795;50.796;3.860;2023-09-12T00:38:05;20.20;99.90
21271;DHT22;10795;50.796;3.860;2023-09-12T00:40:32;19.90;99.90
21271;DHT22;10795;50.796;3.860;2023-09-12T00:42:58;19.70;99.90
21271;DHT22;10795;50.796;3.860;2023-09-12T00:45:24;19.80;99.90
21271;DHT22;10795;50.796;3.860;2023-09-12T00:47:49;20.30;99.90
21271;DHT22;10795;50.796;3.860;2023-09-12T00:50:16;20.20;99.90
21271;DHT22;10795;50.796;3.860;2023-09-12T00:52:43;20.30;99.90
21271;DHT22;10795;50.796;3.860;2023-09-12T00:55:09;20.30;99.90
21271;DHT22;10795;50.796;3.860;2023-09-12T00:57:34;20.60;99.90
21271;DHT22;10795;50.796;3.860;2023-09-12T01:00:04;20.70;99.90
21271;DHT22;10795;50.796;3.860;2023-09-12T01:02:38;21.00;99.90
21271;DHT22;10795;50.796;3.860;2023-09-12T01:05:05;21.00;99.90
21271;DHT22;10795;50.796;3.860;2023-09-12T01:07:31;20.70;99.90
21271;DHT22;10795;50.796;3.860;2023-09-12T01:09:57;19.90;99.90
21271;DHT22;10795;50.796;3.860;2023-09-12T01:12:22;19.50;99.90
21271;DHT22;10795;50.796;3.860;2023-09-12T01:14:48;19.40;99.90
21271;DHT22;10795;50.796;3.860;2023-09-12T01:17:14;19.20;99.90
21271;DHT22;10795;50.796;3.860;2023-09-12T01:19:40;19.00;99.90
21271;DHT22;10795;50.796;3.860;2023-09-12T01:27:28;18.90;99.90
21271;DHT22;10795;50.796;3.860;2023-09-12T01:29:58;19.10;99.90
21271;DHT22;10795;50.796;3.860;2023-09-12T01:32:26;19.20;99.90
21271;DHT22;10795;50.796;3.860;2023-09-12T01:34:52;19.20;99.90
21271;DHT22;10795;50.796;3.860;2023-09-12T01:37:17;19.30;99.90
21271;DHT22;10795;50.796;3.860;2023-09-12T01:39:43;19.30;99.90
21271;DHT22;10795;50.796;3.860;2023-09-12T01:42:10;19.30;99.90
21271;DHT22;10795;50.796;3.860;2023-09-12T01:44:37;19.20;99.90
21271;DHT22;10795;50.796;3.860;2023-09-12T01:47:03;19.00;99.90
21271;DHT22;10795;50.796;3.860;2023-09-12T01:49:30;19.00;99.90
21271;DHT22;10795;50.796;3.860;2023-09-12T01:51:56;19.50;99.90
21271;DHT22;10795;50.796;3.860;2023-09-12T01:54:25;19.40;99.90
21271;DHT22;10795;50.796;3.860;2023-09-12T01:56:51;19.30;99.90
21271;DHT22;10795;50.796;3.860;2023-09-12T01:59:17;19.00;99.90
21271;DHT22;10795;50.796;3.860;2023-09-12T02:01:43;18.80;99.90
21271;DHT22;10795;50.796;3.860;2023-09-12T02:04:08;18.90;99.90
21271;DHT22;10795;50.796;3.860;2023-09-12T02:06:34;18.80;99.90
21271;DHT22;10795;50.796;3.860;2023-09-12T02:09:00;18.50;99.90
21271;DHT22;10795;50.796;3.860;2023-09-12T02:11:27;18.20;99.90
21271;DHT22;10795;50.796;3.860;2023-09-12T02:13:52;18.50;99.90
21271;DHT22;10795;50.796;3.860;2023-09-12T02:16:18;18.50;99.90
21271;DHT22;10795;50.796;3.860;2023-09-12T02:18:44;18.70;99.90
21271;DHT22;10795;50.796;3.860;2023-09-12T02:21:09;18.70;99.90
21271;DHT22;10795;50.796;3.860;2023-09-12T02:23:35;18.80;99.90
21271;DHT22;10795;50.796;3.860;2023-09-12T02:26:01;18.80;99.90
21271;DHT22;10795;50.796;3.860;2023-09-12T02:28:27;18.40;99.90
21271;DHT22;10795;50.796;3.860;2023-09-12T02:30:52;18.30;99.90
21271;DHT22;10795;50.796;3.860;2023-09-12T02:33:18;18.20;99.90
21271;DHT22;10795;50.796;3.860;2023-09-12T02:35:44;18.40;99.90
21271;DHT22;10795;50.796;3.860;2023-09-12T02:38:09;18.50;99.90
21271;DHT22;10795;50.796;3.860;2023-09-12T02:40:35;18.50;99.90
21271;DHT22;10795;50.796;3.860;2023-09-12T02:43:01;18.20;99.90
21271;DHT22;10795;50.796;3.860;2023-09-12T02:45:28;18.10;99.90
21271;DHT22;10795;50.796;3.860;2023-09-12T02:47:53;18.20;99.90
21271;DHT22;10795;50.796;3.860;2023-09-12T02:50:19;18.30;99.90
21271;DHT22;10795;50.796;3.860;2023-09-12T02:52:45;18.80;99.90
21271;DHT22;10795;50.796;3.860;2023-09-12T02:55:11;18.60;99.90
21271;DHT22;10795;50.796;3.860;2023-09-12T02:57:36;18.80;99.90
21271;DHT22;10795;50.796;3.860;2023-09-12T03:00:02;19.00;99.90
21271;DHT22;10795;50.796;3.860;2023-09-12T03:02:28;18.90;99.90
21271;DHT22;10795;50.796;3.860;2023-09-12T03:04:54;19.00;99.90
21271;DHT22;10795;50.796;3.860;2023-09-12T03:07:20;19.50;99.90
21271;DHT22;10795;50.796;3.860;2023-09-12T03:09:49;19.30;99.90
21271;DHT22;10795;50.796;3.860;2023-09-12T03:12:15;19.10;99.90
21271;DHT22;10795;50.796;3.860;2023-09-12T03:14:41;18.80;99.90
21271;DHT22;10795;50.796;3.860;2023-09-12T03:17:06;18.70;99.90
21271;DHT22;10795;50.796;3.860;2023-09-12T03:19:32;18.70;99.90
21271;DHT22;10795;50.796;3.860;2023-09-12T03:21:58;18.50;99.90
21271;DHT22;10795;50.796;3.860;2023-09-12T03:24:24;18.50;99.90
21271;DHT22;10795;50.796;3.860;2023-09-12T03:26:51;18.50;99.90
21271;DHT22;10795;50.796;3.860;2023-09-12T03:29:16;18.50;99.90
21271;DHT22;10795;50.796;3.860;2023-09-12T03:31:44;18.40;99.90
21271;DHT22;10795;50.796;3.860;2023-09-12T03:34:10;18.20;99.90
21271;DHT22;10795;50.796;3.860;2023-09-12T03:36:36;18.40;99.90
21271;DHT22;10795;50.796;3.860;2023-09-12T03:39:02;18.50;99.90
21271;DHT22;10795;50.796;3.860;2023-09-12T03:41:30;18.60;99.90
21271;DHT22;10795;50.796;3.860;2023-09-12T03:43:56;18.70;99.90
21271;DHT22;10795;50.796;3.860;2023-09-12T03:46:22;18.40;99.90
21271;DHT22;10795;50.796;3.860;2023-09-12T03:48:49;18.60;99.90
21271;DHT22;10795;50.796;3.860;2023-09-12T03:51:14;18.40;99.90
21271;DHT22;10795;50.796;3.860;2023-09-12T03:53:40;18.50;99.90
21271;DHT22;10795;50.796;3.860;2023-09-12T03:56:06;18.70;99.90
21271;DHT22;10795;50.796;3.860;2023-09-12T03:58:32;18.90;99.90
21271;DHT22;10795;50.796;3.860;2023-09-12T04:00:58;19.00;99.90
21271;DHT22;10795;50.796;3.860;2023-09-12T04:03:24;19.10;99.90
21271;DHT22;10795;50.796;3.860;2023-09-12T04:05:50;19.30;99.90
21271;DHT22;10795;50.796;3.860;2023-09-12T04:08:16;20.00;99.90
21271;DHT22;10795;50.796;3.860;2023-09-12T04:10:42;20.30;99.90
21271;DHT22;10795;50.796;3.860;2023-09-12T04:13:08;19.90;99.90
21271;DHT22;10795;50.796;3.860;2023-09-12T04:15:34;19.40;99.90
21271;DHT22;10795;50.796;3.860;2023-09-12T04:18:00;19.00;99.90
21271;DHT22;10795;50.796;3.860;2023-09-12T04:20:26;18.60;99.90
21271;DHT22;10795;50.796;3.860;2023-09-12T04:22:51;18.20;99.90
21271;DHT22;10795;50.796;3.860;2023-09-12T04:25:17;18.00;99.90
21271;DHT22;10795;50.796;3.860;2023-09-12T04:27:45;18.10;99.90
21271;DHT22;10795;50.796;3.860;2023-09-12T04:30:11;18.10;99.90
21271;DHT22;10795;50.796;3.860;2023-09-12T04:32:37;17.90;99.90
21271;DHT22;10795;50.796;3.860;2023-09-12T04:35:03;17.80;99.90
21271;DHT22;10795;50.796;3.860;2023-09-12T04:37:29;17.80;99.90
21271;DHT22;10795;50.796;3.860;2023-09-12T04:39:54;18.00;99.90
21271;DHT22;10795;50.796;3.860;2023-09-12T04:42:20;18.00;99.90
21271;DHT22;10795;50.796;3.860;2023-09-12T04:44:46;18.00;99.90
21271;DHT22;10795;50.796;3.860;2023-09-12T04:47:12;18.10;99.90
21271;DHT22;10795;50.796;3.860;2023-09-12T04:49:39;18.30;99.90
21271;DHT22;10795;50.796;3.860;2023-09-12T04:52:05;18.30;99.90
21271;DHT22;10795;50.796;3.860;2023-09-12T04:54:30;18.40;99.90
21271;DHT22;10795;50.796;3.860;2023-09-12T04:56:56;18.30;99.90
21271;DHT22;10795;50.796;3.860;2023-09-12T04:59:22;18.00;99.90
21271;DHT22;10795;50.796;3.860;2023-09-12T05:01:47;17.90;99.90
21271;DHT22;10795;50.796;3.860;2023-09-12T05:04:14;17.80;99.90
21271;DHT22;10795;50.796;3.860;2023-09-12T05:06:40;17.90;99.90
21271;DHT22;10795;50.796;3.860;2023-09-12T05:09:05;17.80;99.90
21271;DHT22;10795;50.796;3.860;2023-09-12T05:11:34;17.70;99.90
21271;DHT22;10795;50.796;3.860;2023-09-12T05:14:00;17.70;99.90
21271;DHT22;10795;50.796;3.860;2023-09-12T05:16:29;17.80;99.90
21271;DHT22;10795;50.796;3.860;2023-09-12T05:18:54;17.50;99.90
21271;DHT22;10795;50.796;3.860;2023-09-12T05:21:21;17.30;99.90
21271;DHT22;10795;50.796;3.860;2023-09-12T05:23:47;17.40;99.90
21271;DHT22;10795;50.796;3.860;2023-09-12T05:26:12;17.70;99.90
21271;DHT22;10795;50.796;3.860;2023-09-12T05:28:38;17.80;99.90
21271;DHT22;10795;50.796;3.860;2023-09-12T05:31:03;17.90;99.90
21271;DHT22;10795;50.796;3.860;2023-09-12T05:33:29;17.90;99.90
21271;DHT22;10795;50.796;3.860;2023-09-12T05:35:56;17.70;99.90
21271;DHT22;10795;50.796;3.860;2023-09-12T05:38:21;17.80;99.90
21271;DHT22;10795;50.796;3.860;2023-09-12T05:40:48;17.70;99.90
21271;DHT22;10795;50.796;3.860;2023-09-12T05:43:17;17.80;99.90
21271;DHT22;10795;50.796;3.860;2023-09-12T05:45:43;17.80;99.90
21271;DHT22;10795;50.796;3.860;2023-09-12T05:48:09;18.20;99.90
21271;DHT22;10795;50.796;3.860;2023-09-12T05:50:36;18.80;99.90
21271;DHT22;10795;50.796;3.860;2023-09-12T05:53:02;19.40;99.90
21271;DHT22;10795;50.796;3.860;2023-09-12T05:55:28;19.80;99.90
21271;DHT22;10795;50.796;3.860;2023-09-12T05:57:54;20.00;99.90
21271;DHT22;10795;50.796;3.860;2023-09-12T06:00:21;19.60;99.90
21271;DHT22;10795;50.796;3.860;2023-09-12T06:02:47;19.20;99.90
21271;DHT22;10795;50.796;3.860;2023-09-12T06:05:13;18.80;99.90
21271;DHT22;10795;50.796;3.860;2023-09-12T06:07:39;18.60;99.90
21271;DHT22;10795;50.796;3.860;2023-09-12T06:10:06;18.50;99.90
21271;DHT22;10795;50.796;3.860;2023-09-12T06:12:31;18.60;99.90
21271;DHT22;10795;50.796;3.860;2023-09-12T06:14:58;18.60;99.90
21271;DHT22;10795;50.796;3.860;2023-09-12T06:17:24;18.50;99.90
21271;DHT22;10795;50.796;3.860;2023-09-12T06:19:50;18.50;99.90
21271;DHT22;10795;50.796;3.860;2023-09-12T06:22:16;18.50;99.90
21271;DHT22;10795;50.796;3.860;2023-09-12T06:24:43;18.40;99.90
21271;DHT22;10795;50.796;3.860;2023-09-12T06:27:11;18.50;99.90
21271;DHT22;10795;50.796;3.860;2023-09-12T06:29:39;18.60;99.90
21271;DHT22;10795;50.796;3.860;2023-09-12T06:32:04;19.00;99.90
21271;DHT22;10795;50.796;3.860;2023-09-12T06:34:30;19.00;99.90
21271;DHT22;10795;50.796;3.860;2023-09-12T06:36:56;19.40;99.90
21271;DHT22;10795;50.796;3.860;2023-09-12T06:39:21;20.10;99.90
21271;DHT22;10795;50.796;3.860;2023-09-12T07:17:49;18.90;99.90
21271;DHT22;10795;50.796;3.860;2023-09-12T07:29:57;18.80;99.90
21271;DHT22;10795;50.796;3.860;2023-09-12T07:36:55;18.90;99.90
21271;DHT22;10795;50.796;3.860;2023-09-12T07:56:53;19.50;99.90
21271;DHT22;10795;50.796;3.860;2023-09-12T11:28:26;32.20;99.90
21271;DHT22;10795;50.796;3.860;2023-09-12T15:22:34;25.60;99.90
21271;DHT22;10795;50.796;3.860;2023-09-12T15:25:17;25.50;99.90
21271;DHT22;10795;50.796;3.860;2023-09-12T15:28:03;24.90;99.90
21271;DHT22;10795;50.796;3.860;2023-09-12T15:30:30;24.60;99.90
21271;DHT22;10795;50.796;3.860;2023-09-12T15:32:56;24.40;99.90
21271;DHT22;10795;50.796;3.860;2023-09-12T15:35:21;24.20;99.90
21271;DHT22;10795;50.796;3.860;2023-09-12T15:37:47;24.40;99.90
21271;DHT22;10795;50.796;3.860;2023-09-12T15:40:13;24.20;99.90
21271;DHT22;10795;50.796;3.860;2023-09-12T15:42:38;24.00;99.90
21271;DHT22;10795;50.796;3.860;2023-09-12T15:45:22;24.20;99.90
21271;DHT22;10795;50.796;3.860;2023-09-12T15:48:24;24.60;99.90
21271;DHT22;10795;50.796;3.860;2023-09-12T15:50:49;24.30;99.90
21271;DHT22;10795;50.796;3.860;2023-09-12T15:53:15;24.30;99.90
21271;DHT22;10795;50.796;3.860;2023-09-12T15:55:41;24.30;99.90
21271;DHT22;10795;50.796;3.860;2023-09-12T15:58:06;24.30;99.90
21271;DHT22;10795;50.796;3.860;2023-09-12T16:00:32;24.50;99.90
21271;DHT22;10795;50.796;3.860;2023-09-12T16:02:58;24.50;99.90
21271;DHT22;10795;50.796;3.860;2023-09-12T16:05:23;24.50;99.90
21271;DHT22;10795;50.796;3.860;2023-09-12T16:07:49;24.10;99.90
21271;DHT22;10795;50.796;3.860;2023-09-12T16:10:15;23.80;99.90
21271;DHT22;10795;50.796;3.860;2023-09-12T16:12:41;23.80;99.90
21271;DHT22;10795;50.796;3.860;2023-09-12T16:15:07;23.70;99.90
21271;DHT22;10795;50.796;3.860;2023-09-12T16:17:32;23.30;99.90
21271;DHT22;10795;50.796;3.860;2023-09-12T16:19:58;23.60;99.90
21271;DHT22;10795;50.796;3.860;2023-09-12T16:22:24;23.70;99.90
21271;DHT22;10795;50.796;3.860;2023-09-12T16:24:49;24.70;99.90
21271;DHT22;10795;50.796;3.860;2023-09-12T16:27:15;25.30;99.90
21271;DHT22;10795;50.796;3.860;2023-09-12T16:29:42;25.50;99.90
21271;DHT22;10795;50.796;3.860;2023-09-12T16:32:08;25.20;99.90
21271;DHT22;10795;50.796;3.860;2023-09-12T16:34:34;24.20;99.90
21271;DHT22;10795;50.796;3.860;2023-09-12T16:37:00;23.90;99.90
21271;DHT22;10795;50.796;3.860;2023-09-12T16:39:25;23.50;99.90
21271;DHT22;10795;50.796;3.860;2023-09-12T16:41:51;23.20;99.90
21271;DHT22;10795;50.796;3.860;2023-09-12T16:44:17;23.20;99.90
21271;DHT22;10795;50.796;3.860;2023-09-12T16:46:42;22.90;99.90
21271;DHT22;10795;50.796;3.860;2023-09-12T16:49:08;22.90;99.90
21271;DHT22;10795;50.796;3.860;2023-09-12T16:51:34;23.70;99.90
21271;DHT22;10795;50.796;3.860;2023-09-12T16:53:59;23.50;99.90
21271;DHT22;10795;50.796;3.860;2023-09-12T16:56:25;23.10;99.90
21271;DHT22;10795;50.796;3.860;2023-09-12T16:58:51;23.10;99.90
21271;DHT22;10795;50.796;3.860;2023-09-12T17:01:16;22.90;99.90
21271;DHT22;10795;50.796;3.860;2023-09-12T17:03:42;22.60;99.90
21271;DHT22;10795;50.796;3.860;2023-09-12T17:06:14;22.70;99.90
21271;DHT22;10795;50.796;3.860;2023-09-12T17:08:39;22.80;99.90
21271;DHT22;10795;50.796;3.860;2023-09-12T17:11:05;22.60;99.90
21271;DHT22;10795;50.796;3.860;2023-09-12T17:13:33;22.40;99.90
21271;DHT22;10795;50.796;3.860;2023-09-12T17:15:59;22.40;99.90
21271;DHT22;10795;50.796;3.860;2023-09-12T17:18:25;22.20;99.90
21271;DHT22;10795;50.796;3.860;2023-09-12T17:20:50;22.50;99.90
21271;DHT22;10795;50.796;3.860;2023-09-12T17:23:16;22.40;99.90
21271;DHT22;10795;50.796;3.860;2023-09-12T17:25:42;22.50;99.90
21271;DHT22;10795;50.796;3.860;2023-09-12T17:28:07;22.60;99.90
21271;DHT22;10795;50.796;3.860;2023-09-12T17:30:33;22.20;99.90
21271;DHT22;10795;50.796;3.860;2023-09-12T17:32:59;22.10;99.90
21271;DHT22;10795;50.796;3.860;2023-09-12T17:35:25;22.80;99.90
21271;DHT22;10795;50.796;3.860;2023-09-12T17:37:51;22.40;99.90
21271;DHT22;10795;50.796;3.860;2023-09-12T17:40:17;22.10;99.90
21271;DHT22;10795;50.796;3.860;2023-09-12T17:42:43;21.90;99.90
21271;DHT22;10795;50.796;3.860;2023-09-12T17:45:09;21.80;99.90
21271;DHT22;10795;50.796;3.860;2023-09-12T17:47:35;22.10;99.90
21271;DHT22;10795;50.796;3.860;2023-09-12T17:50:01;22.70;99.90
21271;DHT22;10795;50.796;3.860;2023-09-12T17:52:27;22.20;99.90
21271;DHT22;10795;50.796;3.860;2023-09-12T17:54:53;22.20;99.90
21271;DHT22;10795;50.796;3.860;2023-09-12T17:57:19;22.40;99.90
21271;DHT22;10795;50.796;3.860;2023-09-12T17:59:44;22.40;99.90
21271;DHT22;10795;50.796;3.860;2023-09-12T18:02:10;22.10;99.90
21271;DHT22;10795;50.796;3.860;2023-09-12T18:04:36;21.70;99.90
21271;DHT22;10795;50.796;3.860;2023-09-12T18:07:02;21.80;99.90
21271;DHT22;10795;50.796;3.860;2023-09-12T18:09:28;21.70;99.90
21271;DHT22;10795;50.796;3.860;2023-09-12T18:11:53;22.10;99.90
21271;DHT22;10795;50.796;3.860;2023-09-12T18:14:20;22.20;99.90
21271;DHT22;10795;50.796;3.860;2023-09-12T18:16:46;21.80;99.90
21271;DHT22;10795;50.796;3.860;2023-09-12T18:19:12;21.20;99.90
21271;DHT22;10795;50.796;3.860;2023-09-12T18:21:37;21.30;99.90
21271;DHT22;10795;50.796;3.860;2023-09-12T18:24:03;21.70;99.90
21271;DHT22;10795;50.796;3.860;2023-09-12T18:26:29;22.30;99.90
21271;DHT22;10795;50.796;3.860;2023-09-12T18:28:54;22.30;99.90
21271;DHT22;10795;50.796;3.860;2023-09-12T18:31:23;22.00;99.90
21271;DHT22;10795;50.796;3.860;2023-09-12T18:33:48;21.80;99.90
21271;DHT22;10795;50.796;3.860;2023-09-12T18:36:14;21.50;99.90
21271;DHT22;10795;50.796;3.860;2023-09-12T18:38:41;21.10;99.90
21271;DHT22;10795;50.796;3.860;2023-09-12T18:41:07;21.50;99.90
21271;DHT22;10795;50.796;3.860;2023-09-12T18:43:32;21.70;99.90
21271;DHT22;10795;50.796;3.860;2023-09-12T18:45:58;21.20;99.90
21271;DHT22;10795;50.796;3.860;2023-09-12T18:48:24;21.10;99.90
21271;DHT22;10795;50.796;3.860;2023-09-12T18:50:49;21.10;99.90
21271;DHT22;10795;50.796;3.860;2023-09-12T18:53:16;21.20;99.90
21271;DHT22;10795;50.796;3.860;2023-09-12T18:55:42;21.10;99.90
21271;DHT22;10795;50.796;3.860;2023-09-12T18:58:08;21.20;99.90
21271;DHT22;10795;50.796;3.860;2023-09-12T19:00:34;21.70;99.90
21271;DHT22;10795;50.796;3.860;2023-09-12T19:03:00;21.60;99.90
21271;DHT22;10795;50.796;3.860;2023-09-12T19:05:26;21.30;99.90
21271;DHT22;10795;50.796;3.860;2023-09-12T19:07:53;21.10;99.90
21271;DHT22;10795;50.796;3.860;2023-09-12T19:10:19;21.10;99.90
21271;DHT22;10795;50.796;3.860;2023-09-12T19:12:44;21.60;99.90
21271;DHT22;10795;50.796;3.860;2023-09-12T19:15:10;21.40;99.90
21271;DHT22;10795;50.796;3.860;2023-09-12T19:17:37;20.90;99.90
21271;DHT22;10795;50.796;3.860;2023-09-12T19:20:03;20.80;99.90
21271;DHT22;10795;50.796;3.860;2023-09-12T19:22:29;20.80;99.90
21271;DHT22;10795;50.796;3.860;2023-09-12T19:24:55;20.80;99.90
21271;DHT22;10795;50.796;3.860;2023-09-12T19:27:22;20.60;99.90
21271;DHT22;10795;50.796;3.860;2023-09-12T19:29:49;20.50;99.90
21271;DHT22;10795;50.796;3.860;2023-09-12T19:32:15;20.60;99.90
21271;DHT22;10795;50.796;3.860;2023-09-12T19:34:40;20.80;99.90
21271;DHT22;10795;50.796;3.860;2023-09-12T19:37:11;21.40;99.90
21271;DHT22;10795;50.796;3.860;2023-09-12T19:39:37;22.10;99.90
21271;DHT22;10795;50.796;3.860;2023-09-12T19:42:03;21.60;99.90
21271;DHT22;10795;50.796;3.860;2023-09-12T19:44:29;21.30;99.90
21271;DHT22;10795;50.796;3.860;2023-09-12T19:46:56;21.00;99.90
21271;DHT22;10795;50.796;3.860;2023-09-12T19:49:21;20.80;99.90
21271;DHT22;10795;50.796;3.860;2023-09-12T19:51:47;20.50;99.90
21271;DHT22;10795;50.796;3.860;2023-09-12T19:54:13;20.30;99.90
21271;DHT22;10795;50.796;3.860;2023-09-12T19:56:39;20.00;99.90
21271;DHT22;10795;50.796;3.860;2023-09-12T19:59:05;20.10;99.90
21271;DHT22;10795;50.796;3.860;2023-09-12T20:01:30;19.90;99.90
21271;DHT22;10795;50.796;3.860;2023-09-12T20:03:56;19.80;99.90
21271;DHT22;10795;50.796;3.860;2023-09-12T20:06:21;20.00;99.90
21271;DHT22;10795;50.796;3.860;2023-09-12T20:08:47;20.00;99.90
21271;DHT22;10795;50.796;3.860;2023-09-12T20:11:13;20.20;99.90
21271;DHT22;10795;50.796;3.860;2023-09-12T20:13:38;20.30;99.90
21271;DHT22;10795;50.796;3.860;2023-09-12T20:16:04;20.20;99.90
21271;DHT22;10795;50.796;3.860;2023-09-12T20:18:30;19.90;99.90
21271;DHT22;10795;50.796;3.860;2023-09-12T20:20:55;19.90;99.90
21271;DHT22;10795;50.796;3.860;2023-09-12T20:23:22;19.80;99.90
21271;DHT22;10795;50.796;3.860;2023-09-12T20:25:49;19.80;99.90
21271;DHT22;10795;50.796;3.860;2023-09-12T20:28:15;19.70;99.90
21271;DHT22;10795;50.796;3.860;2023-09-12T20:30:41;19.70;99.90
21271;DHT22;10795;50.796;3.860;2023-09-12T20:33:07;19.60;99.90
21271;DHT22;10795;50.796;3.860;2023-09-12T20:35:33;19.60;99.90
21271;DHT22;10795;50.796;3.860;2023-09-12T20:38:00;19.60;99.90
21271;DHT22;10795;50.796;3.860;2023-09-12T20:40:25;19.80;99.90
21271;DHT22;10795;50.796;3.860;2023-09-12T20:42:54;19.80;99.90
21271;DHT22;10795;50.796;3.860;2023-09-12T20:45:19;20.00;99.90
21271;DHT22;10795;50.796;3.860;2023-09-12T20:47:45;20.20;99.90
21271;DHT22;10795;50.796;3.860;2023-09-12T20:50:13;20.40;99.90
21271;DHT22;10795;50.796;3.860;2023-09-12T20:52:42;20.40;99.90
21271;DHT22;10795;50.796;3.860;2023-09-12T20:55:08;20.70;99.90
21271;DHT22;10795;50.796;3.860;2023-09-12T20:57:34;20.80;99.90
21271;DHT22;10795;50.796;3.860;2023-09-12T21:00:00;20.80;99.90
21271;DHT22;10795;50.796;3.860;2023-09-12T21:02:25;20.60;99.90
21271;DHT22;10795;50.796;3.860;2023-09-12T21:04:51;20.40;99.90
21271;DHT22;10795;50.796;3.860;2023-09-12T21:07:17;20.30;99.90
21271;DHT22;10795;50.796;3.860;2023-09-12T21:09:42;20.20;99.90
21271;DHT22;10795;50.796;3.860;2023-09-12T21:12:08;20.20;99.90
21271;DHT22;10795;50.796;3.860;2023-09-12T21:14:34;20.10;99.90
21271;DHT22;10795;50.796;3.860;2023-09-12T21:17:00;20.10;99.90
21271;DHT22;10795;50.796;3.860;2023-09-12T21:19:26;19.90;99.90
21271;DHT22;10795;50.796;3.860;2023-09-12T21:21:52;19.90;99.90
21271;DHT22;10795;50.796;3.860;2023-09-12T21:24:17;19.80;99.90
21271;DHT22;10795;50.796;3.860;2023-09-12T21:26:45;19.90;99.90
21271;DHT22;10795;50.796;3.860;2023-09-12T21:29:10;19.90;99.90
21271;DHT22;10795;50.796;3.860;2023-09-12T21:31:36;20.00;99.90
21271;DHT22;10795;50.796;3.860;2023-09-12T21:34:03;19.80;99.90
21271;DHT22;10795;50.796;3.860;2023-09-12T21:36:29;19.70;99.90
21271;DHT22;10795;50.796;3.860;2023-09-12T21:38:55;19.90;99.90
21271;DHT22;10795;50.796;3.860;2023-09-12T21:41:20;19.80;99.90
21271;DHT22;10795;50.796;3.860;2023-09-12T21:43:46;19.80;99.90
21271;DHT22;10795;50.796;3.860;2023-09-12T21:46:12;20.00;99.90
21271;DHT22;10795;50.796;3.860;2023-09-12T21:48:37;20.00;99.90
21271;DHT22;10795;50.796;3.860;2023-09-12T21:51:05;20.00;99.90
21271;DHT22;10795;50.796;3.860;2023-09-12T21:53:30;20.10;99.90
21271;DHT22;10795;50.796;3.860;2023-09-12T21:55:56;19.90;99.90
21271;DHT22;10795;50.796;3.860;2023-09-12T21:58:22;19.90;99.90
21271;DHT22;10795;50.796;3.860;2023-09-12T22:00:47;19.70;99.90
21271;DHT22;10795;50.796;3.860;2023-09-12T22:03:13;19.60;99.90
21271;DHT22;10795;50.796;3.860;2023-09-12T22:05:39;19.60;99.90
21271;DHT22;10795;50.796;3.860;2023-09-12T22:08:04;19.60;99.90
21271;DHT22;10795;50.796;3.860;2023-09-12T22:10:36;19.50;99.90
21271;DHT22;10795;50.796;3.860;2023-09-12T22:13:02;19.50;99.90
21271;DHT22;10795;50.796;3.860;2023-09-12T22:15:28;19.60;99.90
21271;DHT22;10795;50.796;3.860;2023-09-12T22:17:53;19.40;99.90
21271;DHT22;10795;50.796;3.860;2023-09-12T22:20:19;19.30;99.90
21271;DHT22;10795;50.796;3.860;2023-09-12T22:22:44;19.20;99.90
21271;DHT22;10795;50.796;3.860;2023-09-12T22:25:11;19.30;99.90
21271;DHT22;10795;50.796;3.860;2023-09-12T22:27:37;19.10;99.90
21271;DHT22;10795;50.796;3.860;2023-09-12T22:30:03;19.00;99.90
21271;DHT22;10795;50.796;3.860;2023-09-12T22:32:29;19.00;99.90
21271;DHT22;10795;50.796;3.860;2023-09-12T22:34:55;19.10;99.90
21271;DHT22;10795;50.796;3.860;2023-09-12T22:37:21;19.00;99.90
21271;DHT22;10795;50.796;3.860;2023-09-12T22:39:47;18.90;99.90
21271;DHT22;10795;50.796;3.860;2023-09-12T22:42:13;19.00;99.90
21271;DHT22;10795;50.796;3.860;2023-09-12T22:44:40;19.10;99.90
21271;DHT22;10795;50.796;3.860;2023-09-12T22:47:05;19.00;99.90
21271;DHT22;10795;50.796;3.860;2023-09-12T22:49:31;18.90;99.90
21271;DHT22;10795;50.796;3.860;2023-09-12T22:51:56;19.00;99.90
21271;DHT22;10795;50.796;3.860;2023-09-12T22:54:22;18.90;99.90
21271;DHT22;10795;50.796;3.860;2023-09-12T22:56:48;18.90;99.90
21271;DHT22;10795;50.796;3.860;2023-09-12T22:59:14;19.00;99.90
21271;DHT22;10795;50.796;3.860;2023-09-12T23:01:40;18.90;99.90
21271;DHT22;10795;50.796;3.860;2023-09-12T23:04:05;18.90;99.90
21271;DHT22;10795;50.796;3.860;2023-09-12T23:06:31;18.90;99.90
21271;DHT22;10795;50.796;3.860;2023-09-12T23:08:58;18.80;99.90
21271;DHT22;10795;50.796;3.860;2023-09-12T23:11:23;18.70;99.90
21271;DHT22;10795;50.796;3.860;2023-09-12T23:13:49;18.70;99.90
21271;DHT22;10795;50.796;3.860;2023-09-12T23:16:15;18.60;99.90
21271;DHT22;10795;50.796;3.860;2023-09-12T23:18:40;18.50;99.90
21271;DHT22;10795;50.796;3.860;2023-09-12T23:21:06;18.60;99.90
21271;DHT22;10795;50.796;3.860;2023-09-12T23:23:32;18.80;99.90
21271;DHT22;10795;50.796;3.860;2023-09-12T23:25:57;18.80;99.90
21271;DHT22;10795;50.796;3.860;2023-09-12T23:28:23;18.60;99.90
21271;DHT22;10795;50.796;3.860;2023-09-12T23:30:50;18.50;99.90
21271;DHT22;10795;50.796;3.860;2023-09-12T23:33:16;18.40;99.90
21271;DHT22;10795;50.796;3.860;2023-09-12T23:35:41;18.50;99.90
21271;DHT22;10795;50.796;3.860;2023-09-12T23:38:07;18.50;99.90
21271;DHT22;10795;50.796;3.860;2023-09-12T23:40:33;18.60;99.90
21271;DHT22;10795;50.796;3.860;2023-09-12T23:42:58;18.60;99.90
21271;DHT22;10795;50.796;3.860;2023-09-12T23:45:24;18.40;99.90
21271;DHT22;10795;50.796;3.860;2023-09-12T23:47:50;18.40;99.90
21271;DHT22;10795;50.796;3.860;2023-09-12T23:50:15;18.30;99.90
21271;DHT22;10795;50.796;3.860;2023-09-12T23:52:41;18.20;99.90
21271;DHT22;10795;50.796;3.860;2023-09-12T23:55:07;18.20;99.90
21271;DHT22;10795;50.796;3.860;2023-09-12T23:57:32;18.20;99.90